createdAt,value
2023-03-01T00:00:15.538Z,97656.03
2023-03-01T00:03:05.469Z,97661.31
2023-03-01T00:05:55.547Z,97655.22
2023-03-01T00:08:45.931Z,97650.63
2023-03-01T00:11:38.245Z,97649.81
2023-03-01T00:14:28.347Z,97644.59
2023-03-01T00:17:18.437Z,97646.78
2023-03-01T00:20:11.391Z,97637.34
2023-03-01T00:23:01.949Z,97638.50
2023-03-01T00:25:54.060Z,97640.00
2023-03-01T00:28:45.518Z,97636.19
2023-03-01T00:31:35.946Z,97637.78
2023-03-01T00:34:25.732Z,97627.63
2023-03-01T00:37:15.535Z,97622.34
2023-03-01T00:40:07.564Z,97617.03
2023-03-01T00:42:58.011Z,97620.28
2023-03-01T00:45:51.329Z,97615.41
2023-03-01T00:48:43.829Z,97624.59
2023-03-01T00:51:34.336Z,97614.25
2023-03-01T00:54:24.151Z,97613.06
2023-03-01T00:57:14.528Z,97613.06
2023-03-01T01:00:05.541Z,97613.25
2023-03-01T01:02:56.961Z,97602.84
2023-03-01T01:05:47.028Z,97603.28
2023-03-01T01:08:37.140Z,97601.03
2023-03-01T01:11:30.411Z,97598.66
2023-03-01T01:14:20.490Z,97592.22
2023-03-01T01:17:10.633Z,97602.13
2023-03-01T01:20:01.692Z,97592.44
2023-03-01T01:22:52.615Z,97590.47
2023-03-01T01:25:42.890Z,97587.69
2023-03-01T01:28:32.592Z,97592.16
2023-03-01T01:31:25.008Z,97584.44
2023-03-01T01:34:17.886Z,97583.28
2023-03-01T01:37:09.406Z,97582.00
2023-03-01T01:39:58.978Z,97578.41
2023-03-01T01:42:49.370Z,97576.66
2023-03-01T01:45:39.994Z,97578.06
2023-03-01T01:48:41.740Z,97581.94
2023-03-01T01:51:39.843Z,97571.66
2023-03-01T01:54:34.294Z,97580.31
2023-03-01T01:57:26.637Z,97578.56
2023-03-01T02:00:19.921Z,97574.31
2023-03-01T02:03:13.821Z,97573.13
2023-03-01T02:06:07.171Z,97571.97
2023-03-01T02:09:00.957Z,97571.50
2023-03-01T02:11:54.174Z,97561.81
2023-03-01T02:14:44.852Z,97558.19
2023-03-01T02:17:35.830Z,97552.69
2023-03-01T02:20:31.623Z,97555.13
2023-03-01T02:23:22.030Z,97559.09
2023-03-01T02:26:19.069Z,97555.00
2023-03-01T02:29:10.894Z,97549.31
2023-03-01T02:32:03.140Z,97551.72
2023-03-01T02:34:55.629Z,97557.22
2023-03-01T02:37:45.981Z,97556.94
2023-03-01T02:40:37.541Z,97559.38
2023-03-01T02:43:30.884Z,97546.94
2023-03-01T02:46:25.219Z,97551.19
2023-03-01T02:49:25.377Z,97553.38
2023-03-01T02:52:24.747Z,97550.88
2023-03-01T02:55:16.134Z,97546.41
2023-03-01T02:58:07.426Z,97543.97
2023-03-01T03:00:58.985Z,97540.75
2023-03-01T03:03:51.112Z,97549.06
2023-03-01T03:06:42.811Z,97543.56
2023-03-01T03:09:32.734Z,97540.16
2023-03-01T03:12:22.891Z,97536.66
2023-03-01T03:15:16.102Z,97527.63
2023-03-01T03:18:11.171Z,97540.75
2023-03-01T03:21:03.233Z,97534.97
2023-03-01T03:23:54.400Z,97528.94
2023-03-01T03:26:44.382Z,97531.38
2023-03-01T03:29:37.965Z,97542.38
2023-03-01T03:32:28.492Z,97541.44
2023-03-01T03:35:18.986Z,97530.19
2023-03-01T03:38:18.168Z,97533.84
2023-03-01T03:41:10.024Z,97525.72
2023-03-01T03:44:04.284Z,97521.25
2023-03-01T03:46:54.407Z,97525.13
2023-03-01T03:49:47.512Z,97515.56
2023-03-01T03:52:37.405Z,97525.94
2023-03-01T03:55:31.906Z,97517.91
2023-03-01T03:58:23.631Z,97518.94
2023-03-01T04:01:14.337Z,97512.81
2023-03-01T04:04:05.493Z,97512.53
2023-03-01T04:11:30.380Z,97502.81
2023-03-01T04:14:20.568Z,97515.00
2023-03-01T04:17:10.678Z,97506.84
2023-03-01T04:20:10.273Z,97506.06
2023-03-01T04:23:01.484Z,97504.44
2023-03-01T04:25:55.470Z,97511.00
2023-03-01T04:28:50.379Z,97505.72
2023-03-01T04:31:40.907Z,97502.44
2023-03-01T04:34:31.367Z,97505.50
2023-03-01T04:37:21.665Z,97497.81
2023-03-01T04:40:17.594Z,97506.38
2023-03-01T04:43:08.097Z,97499.09
2023-03-01T04:46:04.259Z,97499.00
2023-03-01T04:48:54.705Z,97504.03
2023-03-01T04:51:45.644Z,97498.59
2023-03-01T04:54:37.047Z,97503.88
2023-03-01T04:57:27.856Z,97499.06
2023-03-01T05:00:22.440Z,97490.09
2023-03-01T05:03:19.702Z,97486.25
2023-03-01T05:06:10.704Z,97490.16
2023-03-01T05:09:01.106Z,97483.91
2023-03-01T05:11:53.139Z,97488.16
2023-03-01T05:14:43.330Z,97488.63
2023-03-01T05:17:33.324Z,97483.53
2023-03-01T05:20:26.243Z,97493.53
2023-03-01T05:23:16.571Z,97486.16
2023-03-01T05:26:16.286Z,97484.91
2023-03-01T05:29:16.299Z,97483.53
2023-03-01T05:32:06.959Z,97490.72
2023-03-01T05:34:57.513Z,97489.34
2023-03-01T05:37:50.061Z,97479.78
2023-03-01T05:40:39.724Z,97475.47
2023-03-01T05:43:30.480Z,97484.22
2023-03-01T05:46:21.279Z,97475.81
2023-03-01T05:49:11.329Z,97478.84
2023-03-01T05:52:01.313Z,97481.50
2023-03-01T05:54:53.138Z,97487.41
2023-03-01T05:57:43.803Z,97484.78
2023-03-01T06:00:34.663Z,97492.50
2023-03-01T06:03:24.538Z,97486.44
2023-03-01T06:06:15.023Z,97486.88
2023-03-01T06:09:05.010Z,97493.75
2023-03-01T06:11:56.132Z,97491.28
2023-03-01T06:14:46.665Z,97489.69
2023-03-01T06:17:38.538Z,97488.03
2023-03-01T06:20:29.779Z,97495.53
2023-03-01T06:23:19.873Z,97500.81
2023-03-01T06:26:11.415Z,97492.31
2023-03-01T06:29:03.120Z,97490.44
2023-03-01T06:31:53.339Z,97497.78
2023-03-01T06:34:43.184Z,97497.97
2023-03-01T06:37:33.186Z,97501.41
2023-03-01T06:40:23.343Z,97497.38
2023-03-01T06:43:14.312Z,97502.19
2023-03-01T06:46:08.844Z,97504.22
2023-03-01T06:49:02.186Z,97504.19
2023-03-01T06:51:52.657Z,97503.41
2023-03-01T06:54:42.320Z,97496.72
2023-03-01T06:57:32.512Z,97499.28
2023-03-01T07:00:23.472Z,97495.22
2023-03-01T07:03:14.620Z,97497.06
2023-03-01T07:06:04.814Z,97490.31
2023-03-01T07:08:54.705Z,97488.09
2023-03-01T07:11:44.699Z,97489.06
2023-03-01T07:14:34.880Z,97491.47
2023-03-01T07:17:25.186Z,97475.22
2023-03-01T07:20:17.162Z,97482.66
2023-03-01T07:23:14.151Z,97480.81
2023-03-01T07:26:04.676Z,97473.91
2023-03-01T07:28:54.623Z,97474.69
2023-03-01T07:31:44.954Z,97475.50
2023-03-01T07:34:38.487Z,97469.72
2023-03-01T07:37:29.782Z,97476.22
2023-03-01T07:40:24.931Z,97473.50
2023-03-01T07:43:14.986Z,97467.13
2023-03-01T07:46:17.512Z,97468.09
2023-03-01T07:49:09.961Z,97473.16
2023-03-01T07:52:06.060Z,97466.00
2023-03-01T07:54:58.134Z,97460.44
2023-03-01T07:57:48.116Z,97464.84
2023-03-01T08:00:37.803Z,97463.97
2023-03-01T08:03:27.551Z,97461.47
2023-03-01T08:06:19.224Z,97466.09
2023-03-01T08:09:09.710Z,97460.94
2023-03-01T08:12:01.754Z,97456.19
2023-03-01T08:14:51.898Z,97456.31
2023-03-01T08:17:41.256Z,97449.13
2023-03-01T08:20:30.638Z,97449.28
2023-03-01T08:23:19.855Z,97445.13
2023-03-01T08:26:11.844Z,97443.00
2023-03-01T08:29:04.020Z,97431.16
2023-03-01T08:32:11.831Z,97433.03
2023-03-01T08:35:02.257Z,97440.97
2023-03-01T08:37:52.503Z,97436.88
2023-03-01T08:40:42.874Z,97445.06
2023-03-01T08:43:33.264Z,97440.03
2023-03-01T08:46:24.920Z,97434.31
2023-03-01T08:49:16.844Z,97440.59
2023-03-01T08:52:07.352Z,97432.78
2023-03-01T08:54:57.297Z,97424.28
2023-03-01T08:57:50.382Z,97430.06
2023-03-01T09:00:41.460Z,97421.84
2023-03-01T09:03:32.907Z,97424.00
2023-03-01T09:06:23.197Z,97421.34
2023-03-01T09:09:17.465Z,97424.28
2023-03-01T09:12:10.125Z,97427.38
2023-03-01T09:14:59.815Z,97419.66
2023-03-01T09:17:49.804Z,97409.88
2023-03-01T09:20:41.120Z,97412.63
2023-03-01T09:23:30.794Z,97419.44
2023-03-01T09:26:23.140Z,97409.97
2023-03-01T09:29:13.032Z,97402.16
2023-03-01T09:32:03.307Z,97410.19
2023-03-01T09:35:06.224Z,97406.13
2023-03-01T09:37:57.160Z,97412.03
2023-03-01T09:40:48.120Z,97406.13
2023-03-01T09:43:47.447Z,97407.41
2023-03-01T09:47:01.988Z,97395.19
2023-03-01T09:49:59.769Z,97396.31
2023-03-01T09:52:52.306Z,97406.00
2023-03-01T09:55:46.389Z,97397.00
2023-03-01T09:58:44.375Z,97392.28
2023-03-01T10:01:37.730Z,97385.53
2023-03-01T10:04:37.805Z,97381.50
2023-03-01T10:07:35.309Z,97384.91
2023-03-01T10:10:34.640Z,97385.13
2023-03-01T10:13:29.929Z,97371.63
2023-03-01T10:16:22.794Z,97359.72
2023-03-01T10:19:24.984Z,97362.91
2023-03-01T10:22:22.854Z,97358.25
2023-03-01T10:25:15.835Z,97359.19
2023-03-01T10:28:09.988Z,97360.31
2023-03-01T10:31:07.734Z,97352.53
2023-03-01T10:33:59.982Z,97345.22
2023-03-01T10:36:52.336Z,97350.44
2023-03-01T10:39:57.471Z,97349.97
2023-03-01T10:42:50.830Z,97345.13
2023-03-01T10:45:42.229Z,97335.31
2023-03-01T10:48:33.945Z,97331.53
2023-03-01T10:51:24.787Z,97323.16
2023-03-01T10:54:20.396Z,97317.38
2023-03-01T10:57:30.868Z,97314.63
2023-03-01T11:00:24.657Z,97307.84
2023-03-01T11:03:17.697Z,97300.91
2023-03-01T11:06:23.267Z,97281.31
2023-03-01T11:09:19.053Z,97286.69
2023-03-01T11:12:17.284Z,97287.31
2023-03-01T11:15:07.996Z,97282.31
2023-03-01T11:18:09.299Z,97281.25
2023-03-01T11:21:04.995Z,97273.53
2023-03-01T11:23:57.362Z,97272.84
2023-03-01T11:26:50.522Z,97259.59
2023-03-01T11:29:48.804Z,97248.75
2023-03-01T11:32:44.019Z,97251.78
2023-03-01T11:35:36.888Z,97247.31
2023-03-01T11:38:28.703Z,97245.53
2023-03-01T11:41:23.193Z,97243.97
2023-03-01T11:44:16.970Z,97234.00
2023-03-01T11:47:36.327Z,97220.09
2023-03-01T11:50:33.507Z,97219.75
2023-03-01T11:53:40.397Z,97220.31
2023-03-01T11:56:35.491Z,97210.63
2023-03-01T11:59:48.485Z,97211.22
2023-03-01T12:03:10.303Z,97213.91
2023-03-01T12:06:32.364Z,97196.69
2023-03-01T12:09:37.235Z,97191.16
2023-03-01T12:12:49.813Z,97181.59
2023-03-01T12:15:49.928Z,97173.13
2023-03-01T12:19:10.067Z,97183.25
2023-03-01T12:22:24.120Z,97178.50
2023-03-01T12:25:19.314Z,97167.63
2023-03-01T12:28:31.690Z,97173.31
2023-03-01T12:31:39.216Z,97176.56
2023-03-01T12:34:45.713Z,97168.81
2023-03-01T12:37:43.058Z,97162.72
2023-03-01T12:40:49.479Z,97142.44
2023-03-01T12:43:53.631Z,97143.00
2023-03-01T12:47:04.896Z,97140.03
2023-03-01T12:49:57.640Z,97139.78
2023-03-01T12:52:50.222Z,97130.22
2023-03-01T12:55:42.581Z,97133.41
2023-03-01T12:58:48.694Z,97138.22
2023-03-01T13:01:44.978Z,97132.88
2023-03-01T13:04:55.536Z,97136.63
2023-03-01T13:07:53.427Z,97125.97
2023-03-01T13:10:49.643Z,97128.09
2023-03-01T13:13:40.128Z,97122.47
2023-03-01T13:16:46.459Z,97127.53
2023-03-01T13:19:37.314Z,97139.84
2023-03-01T13:22:32.722Z,97142.00
2023-03-01T13:25:25.710Z,97139.84
2023-03-01T13:28:44.356Z,97133.44
2023-03-01T13:32:06.087Z,97128.09
2023-03-01T13:35:00.900Z,97131.03
2023-03-01T13:37:50.460Z,97127.56
2023-03-01T13:41:01.635Z,97136.09
2023-03-01T13:43:51.120Z,97115.28
2023-03-01T13:46:41.034Z,97115.28
2023-03-01T13:49:55.630Z,97112.84
2023-03-01T13:52:51.818Z,97107.78
2023-03-01T13:55:45.975Z,97122.16
2023-03-01T13:58:36.980Z,97116.25
2023-03-01T14:01:29.463Z,97108.78
2023-03-01T14:04:23.523Z,97102.59
2023-03-01T14:07:19.610Z,97106.56
2023-03-01T14:10:10.788Z,97103.06
2023-03-01T14:13:15.622Z,97096.91
2023-03-01T14:16:24.800Z,97100.66
2023-03-01T14:19:32.053Z,97087.22
2023-03-01T14:22:26.002Z,97089.88
2023-03-01T14:25:27.109Z,97086.09
2023-03-01T14:28:19.128Z,97089.03
2023-03-01T14:31:41.097Z,97088.72
2023-03-01T14:34:37.889Z,97081.72
2023-03-01T14:37:30.776Z,97081.34
2023-03-01T14:40:36.617Z,97073.56
2023-03-01T14:43:27.080Z,97074.09
2023-03-01T14:46:22.460Z,97064.25
2023-03-01T14:49:14.615Z,97051.50
2023-03-01T14:52:06.264Z,97055.44
2023-03-01T14:54:58.020Z,97050.53
2023-03-01T14:57:49.462Z,97043.06
2023-03-01T15:00:38.714Z,97043.66
2023-03-01T15:03:32.818Z,97036.53
2023-03-01T15:06:26.169Z,97038.13
2023-03-01T15:09:18.032Z,97036.50
2023-03-01T15:12:42.181Z,97040.09
2023-03-01T15:15:38.669Z,97031.81
2023-03-01T15:18:29.586Z,97036.13
2023-03-01T15:21:20.481Z,97042.66
2023-03-01T15:24:21.496Z,97032.78
2023-03-01T15:27:17.024Z,97038.03
2023-03-01T15:30:06.916Z,97030.50
2023-03-01T15:33:32.576Z,97041.50
2023-03-01T15:36:35.089Z,97037.41
2023-03-01T15:39:38.521Z,97037.09
2023-03-01T15:42:40.826Z,97038.28
2023-03-01T15:45:31.262Z,97044.25
2023-03-01T15:48:21.950Z,97033.81
2023-03-01T15:51:15.381Z,97029.66
2023-03-01T15:54:11.326Z,97041.13
2023-03-01T15:57:01.227Z,97027.84
2023-03-01T15:59:50.936Z,97035.16
2023-03-01T16:02:40.760Z,97044.75
2023-03-01T16:05:32.904Z,97037.41
2023-03-01T16:08:24.676Z,97032.38
2023-03-01T16:11:18.355Z,97042.81
2023-03-01T16:14:07.637Z,97037.25
2023-03-01T16:16:57.210Z,97035.44
2023-03-01T16:19:46.368Z,97039.84
2023-03-01T16:22:35.586Z,97038.19
2023-03-01T16:25:26.845Z,97045.25
2023-03-01T16:28:15.880Z,97043.19
2023-03-01T16:31:05.759Z,97044.31
2023-03-01T16:33:55.585Z,97042.66
2023-03-01T16:36:45.173Z,97049.44
2023-03-01T16:39:34.545Z,97039.88
2023-03-01T16:42:24.840Z,97039.31
2023-03-01T16:45:23.847Z,97044.25
2023-03-01T16:48:13.731Z,97047.94
2023-03-01T16:51:04.103Z,97048.81
2023-03-01T16:53:53.832Z,97048.78
2023-03-01T16:56:43.094Z,97052.53
2023-03-01T16:59:33.745Z,97045.13
2023-03-01T17:02:22.707Z,97052.59
2023-03-01T17:05:13.042Z,97051.25
2023-03-01T17:08:02.392Z,97059.63
2023-03-01T17:10:52.119Z,97063.44
2023-03-01T17:13:42.322Z,97060.25
2023-03-01T17:16:33.760Z,97066.41
2023-03-01T17:19:23.677Z,97064.00
2023-03-01T17:22:14.309Z,97073.09
2023-03-01T17:25:03.957Z,97082.16
2023-03-01T17:27:53.557Z,97078.44
2023-03-01T17:30:45.483Z,97080.31
2023-03-01T17:33:38.991Z,97074.16
2023-03-01T17:36:28.756Z,97078.72
2023-03-01T17:39:20.866Z,97092.31
2023-03-01T17:42:10.658Z,97086.19
2023-03-01T17:45:00.969Z,97094.19
2023-03-01T17:47:50.865Z,97089.94
2023-03-01T17:50:42.005Z,97099.00
2023-03-01T17:53:31.231Z,97089.38
2023-03-01T17:56:20.672Z,97092.31
2023-03-01T17:59:10.429Z,97095.53
2023-03-01T18:02:01.907Z,97099.78
2023-03-01T18:04:52.069Z,97105.66
2023-03-01T18:07:43.251Z,97106.97
2023-03-01T18:10:33.512Z,97104.28
2023-03-01T18:13:23.447Z,97096.53
2023-03-01T18:16:15.302Z,97108.00
2023-03-01T18:19:05.548Z,97105.34
2023-03-01T18:21:56.324Z,97106.09
2023-03-01T18:24:47.291Z,97103.38
2023-03-01T18:27:37.263Z,97103.28
2023-03-01T18:30:27.270Z,97107.28
2023-03-01T18:33:16.977Z,97108.09
2023-03-01T18:36:07.604Z,97109.09
2023-03-01T18:38:58.192Z,97111.72
2023-03-01T18:41:49.427Z,97109.28
2023-03-01T18:44:39.334Z,97115.94
2023-03-01T18:47:28.606Z,97108.97
2023-03-01T18:50:21.745Z,97109.75
2023-03-01T18:53:12.806Z,97113.25
2023-03-01T18:56:02.845Z,97114.22
2023-03-01T18:58:54.067Z,97122.75
2023-03-01T19:01:44.083Z,97115.00
2023-03-01T19:04:34.031Z,97113.91
2023-03-01T19:07:24.423Z,97111.47
2023-03-01T19:10:14.682Z,97113.03
2023-03-01T19:13:03.766Z,97111.66
2023-03-01T19:15:54.896Z,97110.84
2023-03-01T19:18:50.405Z,97119.81
2023-03-01T19:21:40.180Z,97105.44
2023-03-01T19:24:30.566Z,97115.22
2023-03-01T19:27:19.803Z,97114.63
2023-03-01T19:30:10.955Z,97118.63
2023-03-01T19:33:01.900Z,97113.03
2023-03-01T19:35:51.671Z,97118.59
2023-03-01T19:38:43.227Z,97111.66
2023-03-01T19:41:33.606Z,97119.84
2023-03-01T19:44:25.256Z,97115.84
2023-03-01T19:47:15.274Z,97108.13
2023-03-01T19:50:07.105Z,97106.50
2023-03-01T19:52:56.636Z,97109.13
2023-03-01T19:55:46.625Z,97107.72
2023-03-01T19:58:36.760Z,97107.19
2023-03-01T20:01:28.414Z,97107.19
2023-03-01T20:04:18.060Z,97106.34
2023-03-01T20:07:08.829Z,97109.00
2023-03-01T20:09:58.369Z,97112.66
2023-03-01T20:12:48.285Z,97107.50
2023-03-01T20:15:38.943Z,97109.03
2023-03-01T20:18:28.774Z,97112.19
2023-03-01T20:21:24.475Z,97111.16
2023-03-01T20:24:15.899Z,97112.94
2023-03-01T20:27:05.896Z,97113.00
2023-03-01T20:29:55.832Z,97108.22
2023-03-01T20:32:45.805Z,97107.13
2023-03-01T20:35:36.429Z,97114.84
2023-03-01T20:38:27.852Z,97116.34
2023-03-01T20:41:20.094Z,97116.91
2023-03-01T20:44:10.470Z,97117.88
2023-03-01T20:47:00.578Z,97108.31
2023-03-01T20:49:52.701Z,97112.47
2023-03-01T20:52:47.560Z,97104.00
2023-03-01T20:55:37.919Z,97106.13
2023-03-01T20:58:33.105Z,97104.50
2023-03-01T21:01:30.069Z,97099.66
2023-03-01T21:04:23.286Z,97104.88
2023-03-01T21:07:13.356Z,97106.47
2023-03-01T21:10:03.306Z,97099.56
2023-03-01T21:12:53.706Z,97101.34
2023-03-01T21:15:45.206Z,97100.59
2023-03-01T21:18:37.320Z,97098.38
2023-03-01T21:21:30.199Z,97102.09
2023-03-01T21:24:20.187Z,97087.69
2023-03-01T21:27:10.340Z,97085.50
2023-03-01T21:30:00.156Z,97085.03
2023-03-01T21:32:51.264Z,97089.53
2023-03-01T21:35:41.218Z,97087.94
2023-03-01T21:38:35.634Z,97089.78
2023-03-01T21:41:27.968Z,97086.53
2023-03-01T21:44:17.857Z,97095.53
2023-03-01T21:47:07.302Z,97087.81
2023-03-01T21:49:58.264Z,97078.16
2023-03-01T21:52:47.944Z,97079.44
2023-03-01T21:55:38.022Z,97075.44
2023-03-01T21:58:29.326Z,97074.25
2023-03-01T22:01:21.943Z,97075.84
2023-03-01T22:04:16.494Z,97065.31
2023-03-01T22:07:07.492Z,97064.69
2023-03-01T22:09:57.152Z,97070.91
2023-03-01T22:12:46.948Z,97064.53
2023-03-01T22:15:36.836Z,97057.03
2023-03-01T22:18:26.612Z,97058.94
2023-03-01T22:21:16.920Z,97054.38
2023-03-01T22:24:09.027Z,97056.69
2023-03-01T22:26:59.834Z,97049.22
2023-03-01T22:29:49.536Z,97048.97
2023-03-01T22:32:40.447Z,97056.38
2023-03-01T22:35:30.619Z,97050.44
2023-03-01T22:38:21.041Z,97048.03
2023-03-01T22:41:13.118Z,97052.22
2023-03-01T22:44:03.287Z,97048.75
2023-03-01T22:46:53.774Z,97046.69
2023-03-01T22:49:45.075Z,97039.53
2023-03-01T22:52:35.280Z,97040.88
2023-03-01T22:55:25.257Z,97033.16
2023-03-01T22:58:16.572Z,97034.22
2023-03-01T23:01:12.347Z,97035.97
2023-03-01T23:04:02.758Z,97033.88
2023-03-01T23:06:54.512Z,97035.72
2023-03-01T23:09:45.636Z,97037.34
2023-03-01T23:12:36.030Z,97033.09
2023-03-01T23:15:27.140Z,97028.59
2023-03-01T23:18:16.838Z,97030.13
2023-03-01T23:21:13.156Z,97034.94
2023-03-01T23:24:03.094Z,97024.91
2023-03-01T23:26:54.988Z,97027.31
2023-03-01T23:29:44.976Z,97030.38
2023-03-01T23:32:40.619Z,97033.59
2023-03-01T23:35:30.591Z,97028.19
2023-03-01T23:38:20.998Z,97032.78
2023-03-01T23:41:11.152Z,97027.78
2023-03-01T23:44:02.666Z,97026.69
2023-03-01T23:46:52.531Z,97027.78
2023-03-01T23:49:44.064Z,97022.28
2023-03-01T23:52:39.875Z,97026.03
2023-03-01T23:55:30.295Z,97018.31
2023-03-01T23:58:28.784Z,97019.50
